sensor_id;sensor_type;location;lat;lon;timestamp;pressure;altitude;pressure_sealevel;temperature;humidity
12969;BME280;6549;53.128;8.182;2023-10-08T00:00:38;101969.78;;;12.92;100.00
12969;BME280;6549;53.128;8.182;2023-10-08T00:03:49;101963.13;;;12.93;100.00
12969;BME280;6549;53.128;8.182;2023-10-08T00:06:51;101976.91;;;12.93;100.00
12969;BME280;6549;53.128;8.182;2023-10-08T00:09:52;101974.59;;;12.95;100.00
12969;BME280;6549;53.128;8.182;2023-10-08T00:12:53;101978.06;;;12.92;100.00
12969;BME280;6549;53.128;8.182;2023-10-08T00:15:53;101990.69;;;12.93;100.00
12969;BME280;6549;53.128;8.182;2023-10-08T00:18:53;101992.31;;;12.94;100.00
12969;BME280;6549;53.128;8.182;2023-10-08T00:21:58;102010.81;;;12.94;100.00
12969;BME280;6549;53.128;8.182;2023-10-08T00:25:05;102009.22;;;12.93;100.00
12969;BME280;6549;53.128;8.182;2023-10-08T00:28:11;101994.69;;;12.96;100.00
12969;BME280;6549;53.128;8.182;2023-10-08T00:31:14;101995.50;;;12.96;100.00
12969;BME280;6549;53.128;8.182;2023-10-08T00:34:18;101994.78;;;13.03;100.00
12969;BME280;6549;53.128;8.182;2023-10-08T00:37:20;101997.56;;;13.03;100.00
12969;BME280;6549;53.128;8.182;2023-10-08T00:40:23;101994.44;;;13.04;100.00
12969;BME280;6549;53.128;8.182;2023-10-08T00:43:31;102011.41;;;13.06;100.00
12969;BME280;6549;53.128;8.182;2023-10-08T00:46:34;102023.97;;;13.04;100.00
12969;BME280;6549;53.128;8.182;2023-10-08T00:49:47;102020.44;;;13.03;100.00
12969;BME280;6549;53.128;8.182;2023-10-08T00:53:03;102018.50;;;13.07;100.00
12969;BME280;6549;53.128;8.182;2023-10-08T00:56:10;102022.81;;;13.05;100.00
12969;BME280;6549;53.128;8.182;2023-10-08T00:59:14;102013.34;;;13.06;100.00
12969;BME280;6549;53.128;8.182;2023-10-08T01:02:15;102016.13;;;13.06;100.00
12969;BME280;6549;53.128;8.182;2023-10-08T01:05:20;102023.22;;;13.07;100.00
12969;BME280;6549;53.128;8.182;2023-10-08T01:08:31;102033.47;;;13.06;100.00
12969;BME280;6549;53.128;8.182;2023-10-08T01:11:36;102026.00;;;13.07;100.00
12969;BME280;6549;53.128;8.182;2023-10-08T01:15:02;102018.59;;;13.11;100.00
12969;BME280;6549;53.128;8.182;2023-10-08T01:18:35;102005.50;;;13.08;100.00
12969;BME280;6549;53.128;8.182;2023-10-08T01:21:35;102009.06;;;13.09;100.00
12969;BME280;6549;53.128;8.182;2023-10-08T01:24:40;102008.34;;;13.12;100.00
12969;BME280;6549;53.128;8.182;2023-10-08T01:27:40;102020.56;;;13.11;100.00
12969;BME280;6549;53.128;8.182;2023-10-08T01:30:42;102012.28;;;13.11;100.00
12969;BME280;6549;53.128;8.182;2023-10-08T01:33:42;102012.63;;;13.09;100.00
12969;BME280;6549;53.128;8.182;2023-10-08T01:36:50;102018.16;;;13.09;100.00
12969;BME280;6549;53.128;8.182;2023-10-08T01:39:51;102016.13;;;13.06;100.00
12969;BME280;6549;53.128;8.182;2023-10-08T01:42:52;102027.94;;;13.06;100.00
12969;BME280;6549;53.128;8.182;2023-10-08T01:45:53;102014.84;;;13.00;100.00
12969;BME280;6549;53.128;8.182;2023-10-08T01:48:53;102011.72;;;13.01;100.00
12969;BME280;6549;53.128;8.182;2023-10-08T01:52:00;102020.38;;;13.00;100.00
12969;BME280;6549;53.128;8.182;2023-10-08T01:55:07;102008.91;;;12.98;100.00
12969;BME280;6549;53.128;8.182;2023-10-08T01:58:13;102004.19;;;12.98;100.00
12969;BME280;6549;53.128;8.182;2023-10-08T02:01:20;102007.38;;;13.00;100.00
12969;BME280;6549;53.128;8.182;2023-10-08T02:04:20;102038.44;;;12.97;100.00
12969;BME280;6549;53.128;8.182;2023-10-08T02:07:21;102025.41;;;12.94;100.00
12969;BME280;6549;53.128;8.182;2023-10-08T02:10:22;102037.59;;;12.93;100.00
12969;BME280;6549;53.128;8.182;2023-10-08T02:13:22;102047.03;;;12.92;100.00
12969;BME280;6549;53.128;8.182;2023-10-08T02:16:22;102048.22;;;12.91;100.00
12969;BME280;6549;53.128;8.182;2023-10-08T02:19:23;102045.09;;;12.93;100.00
12969;BME280;6549;53.128;8.182;2023-10-08T02:22:29;102043.13;;;12.93;100.00
12969;BME280;6549;53.128;8.182;2023-10-08T02:25:29;102025.72;;;12.89;100.00
12969;BME280;6549;53.128;8.182;2023-10-08T02:28:29;102026.88;;;12.88;100.00
12969;BME280;6549;53.128;8.182;2023-10-08T02:31:30;102041.91;;;12.91;100.00
12969;BME280;6549;53.128;8.182;2023-10-08T02:34:30;102056.44;;;12.88;100.00
12969;BME280;6549;53.128;8.182;2023-10-08T02:37:30;102055.66;;;12.87;100.00
12969;BME280;6549;53.128;8.182;2023-10-08T02:40:31;102065.88;;;12.87;100.00
12969;BME280;6549;53.128;8.182;2023-10-08T02:43:32;102074.53;;;12.85;100.00
12969;BME280;6549;53.128;8.182;2023-10-08T02:46:34;102063.09;;;12.83;100.00
12969;BME280;6549;53.128;8.182;2023-10-08T02:49:37;102065.44;;;12.85;100.00
12969;BME280;6549;53.128;8.182;2023-10-08T02:52:40;102076.88;;;12.83;100.00
12969;BME280;6549;53.128;8.182;2023-10-08T02:55:41;102090.22;;;12.81;100.00
12969;BME280;6549;53.128;8.182;2023-10-08T02:58:44;102091.78;;;12.79;100.00
12969;BME280;6549;53.128;8.182;2023-10-08T03:01:46;102088.22;;;12.78;100.00
12969;BME280;6549;53.128;8.182;2023-10-08T03:04:51;102088.69;;;12.84;100.00
12969;BME280;6549;53.128;8.182;2023-10-08T03:07:52;102080.72;;;12.79;100.00
12969;BME280;6549;53.128;8.182;2023-10-08T03:10:53;102087.41;;;12.78;100.00
12969;BME280;6549;53.128;8.182;2023-10-08T03:13:57;102084.22;;;12.76;100.00
12969;BME280;6549;53.128;8.182;2023-10-08T03:16:59;102088.13;;;12.75;100.00
12969;BME280;6549;53.128;8.182;2023-10-08T03:20:07;102094.03;;;12.73;100.00
12969;BME280;6549;53.128;8.182;2023-10-08T03:23:26;102096.34;;;12.71;100.00
12969;BME280;6549;53.128;8.182;2023-10-08T03:26:36;102113.28;;;12.70;100.00
12969;BME280;6549;53.128;8.182;2023-10-08T03:29:38;102127.84;;;12.70;100.00
12969;BME280;6549;53.128;8.182;2023-10-08T03:32:42;102134.53;;;12.69;100.00
12969;BME280;6549;53.128;8.182;2023-10-08T03:35:44;102123.88;;;12.68;100.00
12969;BME280;6549;53.128;8.182;2023-10-08T03:38:44;102139.63;;;12.67;100.00
12969;BME280;6549;53.128;8.182;2023-10-08T03:41:50;102138.81;;;12.67;100.00
12969;BME280;6549;53.128;8.182;2023-10-08T03:45:06;102139.19;;;12.65;100.00
12969;BME280;6549;53.128;8.182;2023-10-08T03:48:10;102143.47;;;12.63;100.00
12969;BME280;6549;53.128;8.182;2023-10-08T03:51:15;102134.41;;;12.62;100.00
12969;BME280;6549;53.128;8.182;2023-10-08T03:54:20;102141.81;;;12.58;100.00
12969;BME280;6549;53.128;8.182;2023-10-08T03:57:29;102135.44;;;12.54;100.00
12969;BME280;6549;53.128;8.182;2023-10-08T04:00:43;102139.34;;;12.53;100.00
12969;BME280;6549;53.128;8.182;2023-10-08T04:03:45;102144.84;;;12.53;100.00
12969;BME280;6549;53.128;8.182;2023-10-08T04:06:51;102157.84;;;12.52;100.00
12969;BME280;6549;53.128;8.182;2023-10-08T04:09:56;102148.34;;;12.50;100.00
12969;BME280;6549;53.128;8.182;2023-10-08T04:13:09;102156.97;;;12.48;100.00
12969;BME280;6549;53.128;8.182;2023-10-08T04:16:10;102152.72;;;12.51;100.00
12969;BME280;6549;53.128;8.182;2023-10-08T04:19:10;102160.19;;;12.50;100.00
12969;BME280;6549;53.128;8.182;2023-10-08T04:22:11;102178.31;;;12.51;100.00
12969;BME280;6549;53.128;8.182;2023-10-08T04:25:16;102160.59;;;12.52;100.00
12969;BME280;6549;53.128;8.182;2023-10-08T04:28:19;102166.50;;;12.51;100.00
12969;BME280;6549;53.128;8.182;2023-10-08T04:31:21;102164.91;;;12.50;100.00
12969;BME280;6549;53.128;8.182;2023-10-08T04:34:24;102172.00;;;12.51;100.00
12969;BME280;6549;53.128;8.182;2023-10-08T04:37:26;102180.63;;;12.49;100.00
12969;BME280;6549;53.128;8.182;2023-10-08T04:40:32;102188.09;;;12.49;100.00
12969;BME280;6549;53.128;8.182;2023-10-08T04:43:41;102175.06;;;12.46;100.00
12969;BME280;6549;53.128;8.182;2023-10-08T04:46:43;102182.53;;;12.45;100.00
12969;BME280;6549;53.128;8.182;2023-10-08T04:49:47;102187.69;;;12.47;100.00
12969;BME280;6549;53.128;8.182;2023-10-08T04:52:47;102193.19;;;12.47;100.00
12969;BME280;6549;53.128;8.182;2023-10-08T04:56:00;102206.59;;;12.48;100.00
12969;BME280;6549;53.128;8.182;2023-10-08T04:59:05;102220.84;;;12.50;100.00
12969;BME280;6549;53.128;8.182;2023-10-08T05:02:05;102229.13;;;12.50;100.00
12969;BME280;6549;53.128;8.182;2023-10-08T05:05:24;102232.66;;;12.51;100.00
12969;BME280;6549;53.128;8.182;2023-10-08T05:08:38;102236.22;;;12.51;100.00
12969;BME280;6549;53.128;8.182;2023-10-08T05:11:49;102220.50;;;12.52;100.00
12969;BME280;6549;53.128;8.182;2023-10-08T05:14:53;102216.13;;;12.51;100.00
12969;BME280;6549;53.128;8.182;2023-10-08T05:18:09;102208.22;;;12.49;100.00
12969;BME280;6549;53.128;8.182;2023-10-08T05:21:12;102205.84;;;12.48;100.00
12969;BME280;6549;53.128;8.182;2023-10-08T05:24:35;102199.59;;;12.51;100.00
12969;BME280;6549;53.128;8.182;2023-10-08T05:27:42;102203.50;;;12.50;100.00
12969;BME280;6549;53.128;8.182;2023-10-08T05:30:49;102196.38;;;12.49;100.00
12969;BME280;6549;53.128;8.182;2023-10-08T05:34:05;102201.91;;;12.49;100.00
12969;BME280;6549;53.128;8.182;2023-10-08T05:37:17;102192.03;;;12.48;100.00
12969;BME280;6549;53.128;8.182;2023-10-08T05:40:37;102195.50;;;12.45;100.00
12969;BME280;6549;53.128;8.182;2023-10-08T05:43:57;102210.84;;;12.42;100.00
12969;BME280;6549;53.128;8.182;2023-10-08T05:47:24;102212.78;;;12.42;100.00
12969;BME280;6549;53.128;8.182;2023-10-08T05:50:33;102216.69;;;12.41;100.00
12969;BME280;6549;53.128;8.182;2023-10-08T05:53:42;102232.09;;;12.42;100.00
12969;BME280;6549;53.128;8.182;2023-10-08T05:56:45;102238.41;;;12.42;100.00
12969;BME280;6549;53.128;8.182;2023-10-08T06:00:05;102223.00;;;12.41;100.00
12969;BME280;6549;53.128;8.182;2023-10-08T06:03:06;102232.88;;;12.42;100.00
12969;BME280;6549;53.128;8.182;2023-10-08T06:06:32;102239.63;;;12.45;100.00
12969;BME280;6549;53.128;8.182;2023-10-08T06:09:43;102231.34;;;12.45;100.00
12969;BME280;6549;53.128;8.182;2023-10-08T06:13:03;102245.59;;;12.47;100.00
12969;BME280;6549;53.128;8.182;2023-10-08T06:16:10;102250.38;;;12.50;100.00
12969;BME280;6549;53.128;8.182;2023-10-08T06:19:14;102238.59;;;12.53;100.00
12969;BME280;6549;53.128;8.182;2023-10-08T06:22:14;102225.63;;;12.53;100.00
12969;BME280;6549;53.128;8.182;2023-10-08T06:25:14;102236.66;;;12.53;100.00
12969;BME280;6549;53.128;8.182;2023-10-08T06:28:23;102237.44;;;12.54;100.00
12969;BME280;6549;53.128;8.182;2023-10-08T06:31:26;102237.91;;;12.56;100.00
12969;BME280;6549;53.128;8.182;2023-10-08T06:34:28;102243.84;;;12.58;100.00
12969;BME280;6549;53.128;8.182;2023-10-08T06:37:29;102251.09;;;12.66;100.00
12969;BME280;6549;53.128;8.182;2023-10-08T06:40:29;102273.31;;;13.12;100.00
12969;BME280;6549;53.128;8.182;2023-10-08T06:43:42;102274.00;;;13.50;100.00
12969;BME280;6549;53.128;8.182;2023-10-08T06:46:48;102257.94;;;13.82;100.00
12969;BME280;6549;53.128;8.182;2023-10-08T06:49:48;102262.16;;;13.99;100.00
12969;BME280;6549;53.128;8.182;2023-10-08T06:52:49;102273.78;;;13.85;100.00
12969;BME280;6549;53.128;8.182;2023-10-08T06:55:49;102284.81;;;13.85;100.00
12969;BME280;6549;53.128;8.182;2023-10-08T06:58:56;102291.41;;;13.77;100.00
12969;BME280;6549;53.128;8.182;2023-10-08T07:01:59;102304.69;;;13.68;100.00
12969;BME280;6549;53.128;8.182;2023-10-08T07:04:59;102314.38;;;13.59;100.00
12969;BME280;6549;53.128;8.182;2023-10-08T07:07:59;102317.06;;;13.55;100.00
12969;BME280;6549;53.128;8.182;2023-10-08T07:11:01;102310.28;;;13.49;100.00
12969;BME280;6549;53.128;8.182;2023-10-08T07:14:06;102292.47;;;13.46;100.00
12969;BME280;6549;53.128;8.182;2023-10-08T07:17:10;102283.81;;;13.48;100.00
12969;BME280;6549;53.128;8.182;2023-10-08T07:20:19;102294.81;;;13.67;100.00
12969;BME280;6549;53.128;8.182;2023-10-08T07:23:23;102309.53;;;13.98;100.00
12969;BME280;6549;53.128;8.182;2023-10-08T07:26:29;102328.03;;;14.20;100.00
12969;BME280;6549;53.128;8.182;2023-10-08T07:29:36;102333.69;;;14.30;100.00
12969;BME280;6549;53.128;8.182;2023-10-08T07:32:36;102330.78;;;14.43;100.00
12969;BME280;6549;53.128;8.182;2023-10-08T07:35:40;102329.78;;;14.58;100.00
12969;BME280;6549;53.128;8.182;2023-10-08T07:38:41;102334.28;;;14.69;100.00
12969;BME280;6549;53.128;8.182;2023-10-08T07:41:44;102327.28;;;14.79;100.00
12969;BME280;6549;53.128;8.182;2023-10-08T07:44:44;102332.50;;;14.84;100.00
12969;BME280;6549;53.128;8.182;2023-10-08T07:47:45;102323.06;;;14.89;100.00
12969;BME280;6549;53.128;8.182;2023-10-08T07:50:45;102327.50;;;14.97;100.00
12969;BME280;6549;53.128;8.182;2023-10-08T07:53:46;102328.34;;;15.01;100.00
12969;BME280;6549;53.128;8.182;2023-10-08T07:56:46;102325.25;;;15.06;100.00
12969;BME280;6549;53.128;8.182;2023-10-08T07:59:49;102332.41;;;15.10;100.00
12969;BME280;6549;53.128;8.182;2023-10-08T08:02:54;102346.78;;;15.23;100.00
12969;BME280;6549;53.128;8.182;2023-10-08T08:05:56;102346.09;;;15.29;100.00
12969;BME280;6549;53.128;8.182;2023-10-08T08:08:58;102348.22;;;15.43;100.00
12969;BME280;6549;53.128;8.182;2023-10-08T08:11:59;102351.16;;;15.57;100.00
12969;BME280;6549;53.128;8.182;2023-10-08T08:14:59;102352.78;;;15.62;100.00
12969;BME280;6549;53.128;8.182;2023-10-08T08:18:00;102361.03;;;15.58;100.00
12969;BME280;6549;53.128;8.182;2023-10-08T08:21:09;102374.09;;;15.58;100.00
12969;BME280;6549;53.128;8.182;2023-10-08T08:24:14;102377.69;;;15.58;100.00
12969;BME280;6549;53.128;8.182;2023-10-08T08:27:28;102385.66;;;15.63;100.00
12969;BME280;6549;53.128;8.182;2023-10-08T08:30:38;102386.16;;;15.76;100.00
12969;BME280;6549;53.128;8.182;2023-10-08T08:33:40;102395.63;;;15.71;100.00
12969;BME280;6549;53.128;8.182;2023-10-08T08:36:53;102406.16;;;15.55;100.00
12969;BME280;6549;53.128;8.182;2023-10-08T08:39:57;102405.34;;;15.55;100.00
12969;BME280;6549;53.128;8.182;2023-10-08T08:42:57;102408.22;;;15.62;100.00
12969;BME280;6549;53.128;8.182;2023-10-08T08:46:03;102411.84;;;15.69;100.00
12969;BME280;6549;53.128;8.182;2023-10-08T08:49:07;102407.97;;;15.78;100.00
12969;BME280;6549;53.128;8.182;2023-10-08T08:52:08;102390.06;;;15.71;100.00
12969;BME280;6549;53.128;8.182;2023-10-08T08:55:09;102382.81;;;15.56;100.00
12969;BME280;6549;53.128;8.182;2023-10-08T08:58:14;102390.22;;;15.49;100.00
12969;BME280;6549;53.128;8.182;2023-10-08T09:01:15;102373.69;;;15.56;100.00
12969;BME280;6549;53.128;8.182;2023-10-08T09:04:27;102381.03;;;15.75;100.00
12969;BME280;6549;53.128;8.182;2023-10-08T09:07:29;102394.53;;;15.80;100.00
12969;BME280;6549;53.128;8.182;2023-10-08T09:10:30;102397.25;;;15.76;100.00
12969;BME280;6549;53.128;8.182;2023-10-08T09:13:36;102395.72;;;15.79;100.00
12969;BME280;6549;53.128;8.182;2023-10-08T09:16:37;102393.00;;;15.86;100.00
12969;BME280;6549;53.128;8.182;2023-10-08T09:19:38;102400.09;;;15.80;100.00
12969;BME280;6549;53.128;8.182;2023-10-08T09:22:38;102396.00;;;15.66;100.00
12969;BME280;6549;53.128;8.182;2023-10-08T09:25:43;102411.31;;;15.57;100.00
12969;BME280;6549;53.128;8.182;2023-10-08T09:28:47;102439.84;;;15.57;100.00
12969;BME280;6549;53.128;8.182;2023-10-08T09:31:58;102458.09;;;15.62;100.00
12969;BME280;6549;53.128;8.182;2023-10-08T09:35:00;102463.66;;;15.65;100.00
12969;BME280;6549;53.128;8.182;2023-10-08T09:38:02;102419.22;;;15.55;100.00
12969;BME280;6549;53.128;8.182;2023-10-08T09:41:03;102413.53;;;15.44;100.00
12969;BME280;6549;53.128;8.182;2023-10-08T09:44:05;102434.28;;;15.57;100.00
12969;BME280;6549;53.128;8.182;2023-10-08T09:47:07;102427.31;;;15.70;100.00
12969;BME280;6549;53.128;8.182;2023-10-08T09:50:09;102421.81;;;15.78;100.00
12969;BME280;6549;53.128;8.182;2023-10-08T09:53:13;102432.97;;;15.85;100.00
12969;BME280;6549;53.128;8.182;2023-10-08T09:56:22;102444.53;;;15.90;100.00
12969;BME280;6549;53.128;8.182;2023-10-08T09:59:27;102408.94;;;15.96;100.00
12969;BME280;6549;53.128;8.182;2023-10-08T10:02:28;102444.28;;;16.06;100.00
12969;BME280;6549;53.128;8.182;2023-10-08T10:05:34;102435.59;;;16.11;100.00
12969;BME280;6549;53.128;8.182;2023-10-08T10:08:38;102410.97;;;16.02;100.00
12969;BME280;6549;53.128;8.182;2023-10-08T10:11:38;102445.75;;;15.93;100.00
12969;BME280;6549;53.128;8.182;2023-10-08T10:14:42;102408.88;;;15.89;100.00
12969;BME280;6549;53.128;8.182;2023-10-08T10:17:46;102448.06;;;15.87;100.00
12969;BME280;6549;53.128;8.182;2023-10-08T10:24:35;102431.44;;;15.87;100.00
12969;BME280;6549;53.128;8.182;2023-10-08T10:27:37;102452.00;;;15.86;100.00
12969;BME280;6549;53.128;8.182;2023-10-08T10:30:39;102455.16;;;15.85;100.00
12969;BME280;6549;53.128;8.182;2023-10-08T10:33:39;102453.56;;;15.84;100.00
12969;BME280;6549;53.128;8.182;2023-10-08T10:36:40;102444.97;;;15.96;100.00
12969;BME280;6549;53.128;8.182;2023-10-08T10:39:41;102438.44;;;16.18;100.00
12969;BME280;6549;53.128;8.182;2023-10-08T10:42:47;102450.22;;;16.55;100.00
12969;BME280;6549;53.128;8.182;2023-10-08T10:45:53;102439.00;;;16.89;100.00
12969;BME280;6549;53.128;8.182;2023-10-08T10:48:55;102435.50;;;17.06;100.00
12969;BME280;6549;53.128;8.182;2023-10-08T10:52:29;102439.47;;;17.05;100.00
12969;BME280;6549;53.128;8.182;2023-10-08T10:55:32;102459.22;;;16.89;100.00
12969;BME280;6549;53.128;8.182;2023-10-08T10:58:33;102458.31;;;16.71;100.00
12969;BME280;6549;53.128;8.182;2023-10-08T11:01:39;102459.47;;;16.67;100.00
12969;BME280;6549;53.128;8.182;2023-10-08T11:04:47;102444.31;;;16.57;100.00
12969;BME280;6549;53.128;8.182;2023-10-08T11:07:51;102447.53;;;16.59;100.00
12969;BME280;6549;53.128;8.182;2023-10-08T11:10:53;102455.06;;;16.62;100.00
12969;BME280;6549;53.128;8.182;2023-10-08T11:14:01;102445.59;;;16.67;100.00
12969;BME280;6549;53.128;8.182;2023-10-08T11:17:09;102434.50;;;16.70;100.00
12969;BME280;6549;53.128;8.182;2023-10-08T11:20:26;102428.94;;;16.67;100.00
12969;BME280;6549;53.128;8.182;2023-10-08T11:26:36;102413.09;;;16.71;100.00
12969;BME280;6549;53.128;8.182;2023-10-08T11:29:47;102410.69;;;16.69;100.00
12969;BME280;6549;53.128;8.182;2023-10-08T11:32:49;102414.25;;;16.63;96.52
12969;BME280;6549;53.128;8.182;2023-10-08T11:36:03;102423.69;;;16.54;97.01
12969;BME280;6549;53.128;8.182;2023-10-08T11:39:24;102413.75;;;16.53;100.00
12969;BME280;6549;53.128;8.182;2023-10-08T11:42:30;102406.69;;;16.59;100.00
12969;BME280;6549;53.128;8.182;2023-10-08T11:45:33;102384.53;;;16.70;100.00
12969;BME280;6549;53.128;8.182;2023-10-08T11:48:39;102370.28;;;16.72;100.00
12969;BME280;6549;53.128;8.182;2023-10-08T11:51:44;102357.94;;;16.66;92.96
12969;BME280;6549;53.128;8.182;2023-10-08T11:54:49;102348.81;;;16.61;93.27
12969;BME280;6549;53.128;8.182;2023-10-08T11:57:52;102355.16;;;16.58;99.50
12969;BME280;6549;53.128;8.182;2023-10-08T12:00:52;102343.25;;;16.61;99.82
12969;BME280;6549;53.128;8.182;2023-10-08T12:03:53;102355.16;;;16.58;100.00
12969;BME280;6549;53.128;8.182;2023-10-08T12:06:59;102381.25;;;16.50;98.18
12969;BME280;6549;53.128;8.182;2023-10-08T12:10:03;102391.25;;;16.66;100.00
12969;BME280;6549;53.128;8.182;2023-10-08T12:13:03;102390.56;;;16.83;100.00
12969;BME280;6549;53.128;8.182;2023-10-08T12:16:05;102392.59;;;16.89;100.00
12969;BME280;6549;53.128;8.182;2023-10-08T12:19:06;102404.88;;;16.88;94.28
12969;BME280;6549;53.128;8.182;2023-10-08T12:22:15;102412.41;;;16.84;97.51
12969;BME280;6549;53.128;8.182;2023-10-08T12:25:19;102414.78;;;16.86;96.01
12969;BME280;6549;53.128;8.182;2023-10-08T12:28:20;102396.53;;;16.85;97.95
12969;BME280;6549;53.128;8.182;2023-10-08T12:31:21;102392.59;;;16.93;100.00
12969;BME280;6549;53.128;8.182;2023-10-08T12:34:22;102385.06;;;16.90;100.00
12969;BME280;6549;53.128;8.182;2023-10-08T12:37:23;102394.19;;;16.94;100.00
12969;BME280;6549;53.128;8.182;2023-10-08T12:40:23;102412.03;;;16.89;100.00
12969;BME280;6549;53.128;8.182;2023-10-08T12:43:24;102403.25;;;16.84;100.00
12969;BME280;6549;53.128;8.182;2023-10-08T12:46:27;102396.47;;;16.78;100.00
12969;BME280;6549;53.128;8.182;2023-10-08T12:49:31;102391.72;;;16.78;100.00
12969;BME280;6549;53.128;8.182;2023-10-08T12:52:34;102392.50;;;16.75;98.98
12969;BME280;6549;53.128;8.182;2023-10-08T12:55:40;102377.50;;;16.87;100.00
12969;BME280;6549;53.128;8.182;2023-10-08T12:58:41;102357.38;;;17.08;95.31
12969;BME280;6549;53.128;8.182;2023-10-08T13:01:44;102366.56;;;17.29;90.05
12969;BME280;6549;53.128;8.182;2023-10-08T13:04:44;102369.38;;;17.54;88.09
12969;BME280;6549;53.128;8.182;2023-10-08T13:07:45;102366.66;;;17.65;85.40
12969;BME280;6549;53.128;8.182;2023-10-08T13:10:49;102371.03;;;17.59;81.67
12969;BME280;6549;53.128;8.182;2023-10-08T13:13:53;102371.75;;;17.48;84.80
12969;BME280;6549;53.128;8.182;2023-10-08T13:16:56;102380.91;;;17.56;85.12
12969;BME280;6549;53.128;8.182;2023-10-08T13:19:56;102371.81;;;17.63;84.29
12969;BME280;6549;53.128;8.182;2023-10-08T13:22:57;102380.56;;;17.72;83.74
12969;BME280;6549;53.128;8.182;2023-10-08T13:25:57;102387.34;;;17.81;83.10
12969;BME280;6549;53.128;8.182;2023-10-08T13:29:04;102402.84;;;17.86;83.17
12969;BME280;6549;53.128;8.182;2023-10-08T13:32:05;102390.13;;;17.88;79.74
12969;BME280;6549;53.128;8.182;2023-10-08T13:35:06;102386.56;;;17.95;77.97
12969;BME280;6549;53.128;8.182;2023-10-08T13:38:11;102386.53;;;17.88;76.52
12969;BME280;6549;53.128;8.182;2023-10-08T13:41:13;102386.16;;;17.79;73.33
12969;BME280;6549;53.128;8.182;2023-10-08T13:44:18;102384.16;;;17.83;74.48
12969;BME280;6549;53.128;8.182;2023-10-08T13:47:26;102367.88;;;17.81;73.56
12969;BME280;6549;53.128;8.182;2023-10-08T13:50:28;102376.22;;;17.85;74.68
12969;BME280;6549;53.128;8.182;2023-10-08T13:53:33;102371.47;;;18.00;75.30
12969;BME280;6549;53.128;8.182;2023-10-08T13:56:33;102372.66;;;18.13;75.51
12969;BME280;6549;53.128;8.182;2023-10-08T13:59:35;102378.59;;;18.11;76.18
12969;BME280;6549;53.128;8.182;2023-10-08T14:02:35;102377.81;;;18.00;74.87
12969;BME280;6549;53.128;8.182;2023-10-08T14:05:38;102368.25;;;17.80;75.01
12969;BME280;6549;53.128;8.182;2023-10-08T14:08:38;102384.94;;;17.80;78.26
12969;BME280;6549;53.128;8.182;2023-10-08T14:11:39;102388.53;;;17.73;78.48
12969;BME280;6549;53.128;8.182;2023-10-08T14:14:40;102398.06;;;17.72;80.16
12969;BME280;6549;53.128;8.182;2023-10-08T14:17:45;102381.75;;;17.71;77.65
12969;BME280;6549;53.128;8.182;2023-10-08T14:20:48;102380.56;;;17.68;78.78
12969;BME280;6549;53.128;8.182;2023-10-08T14:23:53;102377.38;;;17.66;76.71
12969;BME280;6549;53.128;8.182;2023-10-08T14:26:56;102375.41;;;17.60;77.33
12969;BME280;6549;53.128;8.182;2023-10-08T14:30:03;102366.59;;;17.58;78.92
12969;BME280;6549;53.128;8.182;2023-10-08T14:33:04;102361.06;;;17.54;77.62
12969;BME280;6549;53.128;8.182;2023-10-08T14:36:09;102358.66;;;17.49;76.32
12969;BME280;6549;53.128;8.182;2023-10-08T14:39:29;102368.16;;;17.41;77.46
12969;BME280;6549;53.128;8.182;2023-10-08T14:42:48;102362.59;;;17.34;81.14
12969;BME280;6549;53.128;8.182;2023-10-08T14:46:03;102352.25;;;17.31;80.99
12969;BME280;6549;53.128;8.182;2023-10-08T14:49:07;102339.97;;;17.35;81.59
12969;BME280;6549;53.128;8.182;2023-10-08T14:52:09;102339.59;;;17.40;80.29
12969;BME280;6549;53.128;8.182;2023-10-08T14:55:10;102337.22;;;17.46;82.49
12969;BME280;6549;53.128;8.182;2023-10-08T14:58:12;102338.81;;;17.50;82.26
12969;BME280;6549;53.128;8.182;2023-10-08T15:01:14;102342.38;;;17.55;81.47
12969;BME280;6549;53.128;8.182;2023-10-08T15:04:14;102333.63;;;17.52;80.89
12969;BME280;6549;53.128;8.182;2023-10-08T15:07:15;102327.69;;;17.43;81.65
12969;BME280;6549;53.128;8.182;2023-10-08T15:10:18;102325.69;;;17.33;82.49
12969;BME280;6549;53.128;8.182;2023-10-08T15:13:19;102318.50;;;17.18;81.85
12969;BME280;6549;53.128;8.182;2023-10-08T15:16:20;102299.03;;;17.15;84.85
12969;BME280;6549;53.128;8.182;2023-10-08T15:19:22;102295.03;;;17.01;86.02
12969;BME280;6549;53.128;8.182;2023-10-08T15:22:23;102288.69;;;16.94;90.24
12969;BME280;6549;53.128;8.182;2023-10-08T15:25:24;102291.84;;;16.89;94.45
12969;BME280;6549;53.128;8.182;2023-10-08T15:28:24;102279.91;;;16.81;93.03
12969;BME280;6549;53.128;8.182;2023-10-08T15:31:24;102279.06;;;16.70;97.43
12969;BME280;6549;53.128;8.182;2023-10-08T15:34:25;102281.34;;;16.54;100.00
12969;BME280;6549;53.128;8.182;2023-10-08T15:37:26;102290.03;;;16.42;98.59
12969;BME280;6549;53.128;8.182;2023-10-08T15:40:26;102286.03;;;16.39;100.00
12969;BME280;6549;53.128;8.182;2023-10-08T15:43:27;102286.00;;;16.36;100.00
12969;BME280;6549;53.128;8.182;2023-10-08T15:46:27;102270.09;;;16.29;100.00
12969;BME280;6549;53.128;8.182;2023-10-08T15:49:27;102266.16;;;16.34;100.00
12969;BME280;6549;53.128;8.182;2023-10-08T15:52:28;102273.75;;;16.37;100.00
12969;BME280;6549;53.128;8.182;2023-10-08T15:55:28;102263.81;;;16.36;100.00
12969;BME280;6549;53.128;8.182;2023-10-08T15:58:28;102271.72;;;16.34;100.00
12969;BME280;6549;53.128;8.182;2023-10-08T16:01:29;102271.34;;;16.32;100.00
12969;BME280;6549;53.128;8.182;2023-10-08T16:04:29;102273.63;;;16.19;100.00
12969;BME280;6549;53.128;8.182;2023-10-08T16:07:29;102267.66;;;16.17;100.00
12969;BME280;6549;53.128;8.182;2023-10-08T16:10:32;102229.22;;;16.15;100.00
12969;BME280;6549;53.128;8.182;2023-10-08T16:13:32;102231.13;;;16.01;100.00